• Join FlightAware (Why Join?)
  • Login
  • US Flag 
11:51AM EST


 

Airport Tracker/Info


-or-


 

Live Flight TrackerFlight Track Log ✈ UCA596 ✈ 10-Sep-2013 ✈ KIAD - KBGM

Flight Track Log - Related Links

Times and Time Zones

All times are in EDT time to prevent confusion due to time zone crossing. See the UCA596 flight status page for this flight to view local times or setup timezone preferences in your user account.

Time Position Orientation Groundspeed Altitude Reporting Facility
EDT Latitude Longitude Course Direction KTS MPH feet Rate Location/Type
03:05PM 38.9500 -77.5167 North 136 157 1,700  Level Potomac TRACON
03:06PM 38.9667 -77.5667 293° West 190 219 2,700 1,140 Climbing Potomac TRACON
03:07PM 39.0000 -77.6333 303° West 193 222 4,000 780 Climbing Potomac TRACON
03:08PM 39.0081 -77.6672 287° West 218 251 4,000 660 Level Washington Center
03:09PM 39.0483 -77.7458 303° West 237 273 5,100 1,380 Climbing Washington Center
03:10PM 39.0878 -77.7603 344° North 192 221 6,900 1,560 Climbing Washington Center
03:11PM 39.5244 -77.4500 North  Level FlightAware Approximate
03:11PM 39.1417 -77.7728 350° North 199 229 8,200  Level Washington Center
03:12PM 39.1936 -77.7903 345° North 199 229 9,600 1,260 Climbing Washington Center
03:13PM 39.2397 -77.7703 19° North 199 229 10,800 1,200 Climbing Washington Center
03:14PM 39.2883 -77.7342 30° Northeast 183 211 12,100 1,200 Climbing Washington Center
03:15PM 39.3347 -77.7006 29° Northeast 183 211 13,300 1,200 Climbing Washington Center
03:16PM 39.3811 -77.6644 31° Northeast 188 216 14,500 1,140 Climbing Washington Center
03:17PM 39.4278 -77.6256 33° Northeast 188 216 15,600 1,080 Climbing Washington Center
03:18PM 39.4764 -77.5892 30° Northeast 188 216 16,700 900 Climbing Washington Center
03:20PM 39.6033 -77.4861 32° Northeast 199 229 18,900 660 Climbing New York Center
03:21PM 39.6553 -77.4533 26° Northeast 204 235 19,000  Climbing New York Center
03:22PM 39.7261 -77.4519 North 223 257 19,000  Level New York Center
03:23PM 39.7928 -77.4528 359° North 251 289 19,000  Level New York Center
03:24PM 39.8722 -77.4522 360° North 256 295 19,000  Level New York Center
03:25PM 39.9347 -77.4503 North 251 289 19,000  Level New York Center
03:26PM 40.0119 -77.4494 360° North 251 289 19,000  Level New York Center
03:27PM 40.0767 -77.4475 North 251 289 19,000  Level New York Center
03:28PM 40.1519 -77.4467 360° North 251 289 19,000  Level New York Center
03:29PM 40.2228 -77.4453 North 251 289 19,000  Level New York Center
03:30PM 40.2917 -77.4436 North 251 289 19,000  Level New York Center
03:31PM 40.3606 -77.4447 359° North 251 289 19,000  Level New York Center
03:32PM 40.4292 -77.4461 359° North 251 289 19,000  Level New York Center
03:33PM 40.4981 -77.4444 North 251 289 19,000 -120 Level New York Center
03:34PM 40.5653 -77.4347 North 251 289 18,800 -300 Descending New York Center
03:35PM 40.6267 -77.3806 34° Northeast 243 280 18,400 -480 Descending New York Center
03:36PM 40.6903 -77.3264 33° Northeast 263 303 17,900 -480 Descending New York Center
03:37PM 40.7558 -77.2694 33° Northeast 269 310 17,500 -480 Descending New York Center
03:38PM 40.8214 -77.2128 33° Northeast 269 310 17,000 -300 Descending New York Center
03:39PM 40.8850 -77.1583 33° Northeast 269 310 17,000  Level New York Center
03:40PM 40.9439 -77.1061 34° Northeast 269 310 17,000  Level New York Center
03:41PM 41.0050 -77.0542 33° Northeast 269 310 17,000  Level New York Center
03:42PM 41.0664 -76.9992 34° Northeast 264 304 17,000  Level New York Center
03:43PM 41.1253 -76.9467 34° Northeast 264 304 17,000  Level New York Center
03:44PM 41.1864 -76.8944 33° Northeast 264 304 17,000  Level New York Center
03:45PM 41.2453 -76.8444 33° Northeast 264 304 17,000 -540 Level New York Center
03:46PM 41.3064 -76.7892 34° Northeast 259 298 16,000 -1,140 Descending New York Center
03:47PM 41.3717 -76.7314 34° Northeast 269 310 14,800 -1,200 Descending New York Center
03:48PM 41.4394 -76.6711 34° Northeast 275 316 13,600 -900 Descending New York Center
03:49PM 41.5028 -76.6128 35° Northeast 281 323 13,000 -300 Descending New York Center
03:50PM 41.5592 -76.5650 32° Northeast 273 314 13,000 -420 Level New York Center
03:51PM 41.6267 -76.5044 34° Northeast 268 308 12,200 -960 Descending New York Center
03:52PM 41.6878 -76.4483 34° Northeast 268 308 11,100 -1,200 Descending New York Center
03:53PM 41.7486 -76.3953 33° Northeast 268 308 9,800 -1,440 Descending New York Center
03:54PM 41.8028 -76.3469 34° Northeast 268 308 8,300 -1,320 Descending New York Center
03:55PM 41.8639 -76.2908 34° Northeast 268 308 7,200 -1,200 Descending New York Center
03:56PM 41.9353 -76.2297 32° Northeast 268 308 6,000 -1,140 Descending New York Center
03:57PM 42.0006 -76.1711 34° Northeast 268 308 5,000 -720 Descending New York Center
03:58PM 42.0589 -76.1200 33° Northeast 268 308 4,600 -600 Descending New York Center
03:59PM 42.1197 -76.0633 35° Northeast 268 308 3,900 -600 Descending New York Center
04:00PM 42.1831 -76.0433 13° North 248 285 3,500 -540 Descending New York Center
04:01PM 42.2325 -76.0556 350° North 209 241 2,900 -600 Descending New York Center
04:02PM 42.2547 -76.0239 47° Northeast 131 151 2,300 -420 Descending New York Center
04:03PM 42.2522 -75.9900 96° East 78 90 2,100 3,300 Descending New York Center
04:04PM 42.2636 -75.9628 61° Northeast 78 90 9,000 3,420 Climbing New York Center
04:05PM 42.2753 -75.9358 60° Northeast 78 90 9,000  Level New York Center
04:07PM 42.2084 -75.9796 206° Southwest  Level Estimated
04:14PM 42.2084 -75.9796 35° Northeast  Level Estimated
04:15PM 42.2084 -75.9796 35° Northeast  Level Estimated
04:16PM 42.2084 -75.9796 35° Northeast  Level Estimated
04:17PM 42.2084 -75.9796 35° Northeast  Level Estimated
04:18PM 42.2084 -75.9796 35° Northeast  Level Estimated
04:19PM 42.2084 -75.9796 35° Northeast  Level Estimated